EKSP/SKS METAR and TAF weather

Enter ICAO airport designator
Station Type Date Time Source
EKSP METAR 2019/12/13 22:20 UTC NOAA

EKSP 132220Z 15007KT 9000 -RA SCT014 BKN019 02/M00 Q0981


Station Type Date Time Source
EKSP Decoded METAR 2019/12/13 22:20 UTC NOAA

Skrydstrup, Denmark (EKSP) 55-14N 009-16E 47M
Dec 13, 2019 - 05:20 PM EST / 2019.12.13 2220 UTC
Wind: from the SSE (150 degrees) at 8 MPH (7 KT):0
Visibility: 5 mile(s):0
Sky conditions: mostly cloudy
Weather: light rain
Temperature: 35 F (2 C)
Windchill: 28 F (-2 C):1
Dew Point: 32 F (0 C)
Relative Humidity: 86%
Pressure (altimeter): 28.97 in. Hg (0981 hPa)
ob: EKSP 132220Z 15007KT 9000 -RA SCT014 BKN019 02/M00 Q0981
cycle: 22

Station Type Date Time Source
EKSP TAF 2019/12/13 21:31 UTC NOAA

TAF EKSP 132021Z 1321/1421 13012KT 9999 BKN025
BECMG 1321/1323 5000 -RADZ BKN008
TEMPO 1323/1409 1800 -RADZ BKN002
BECMG 1409/1411 24012KT 8000 -SHRA SCT020TCU
TEMPO 1411/1421 24015G25KT 4000 SHRA BKN008 BKN015CB

Example: see airport list